createdAt,value
2019-05-28T00:01:46.383Z,1.75
2019-05-28T00:03:50.249Z,1.47
2019-05-28T00:05:54.037Z,1.85
2019-05-28T00:07:58.013Z,1.82
2019-05-28T00:10:02.420Z,1.62
2019-05-28T00:12:06.496Z,1.92
2019-05-28T00:14:10.376Z,1.85
2019-05-28T00:16:14.184Z,1.60
2019-05-28T00:18:18.071Z,1.87
2019-05-28T00:20:22.209Z,1.82
2019-05-28T00:22:26.015Z,1.50
2019-05-28T00:24:30.906Z,2.00
2019-05-28T00:26:34.837Z,2.08
2019-05-28T00:28:38.655Z,2.00
2019-05-28T00:30:42.476Z,1.95
2019-05-28T00:32:46.438Z,1.72
2019-05-28T00:34:50.240Z,2.00
2019-05-28T00:36:54.069Z,2.10
2019-05-28T00:38:57.936Z,2.22
2019-05-28T00:41:01.771Z,2.37
2019-05-28T00:43:05.739Z,2.37
2019-05-28T00:45:10.256Z,2.30
2019-05-28T00:47:14.226Z,2.65
2019-05-28T00:49:18.202Z,2.80
2019-05-28T00:51:22.171Z,2.70
2019-05-28T00:53:26.107Z,2.85
2019-05-28T00:55:30.053Z,2.90
2019-05-28T00:57:34.870Z,2.70
2019-05-28T00:59:39.306Z,2.40
2019-05-28T01:01:43.185Z,2.50
2019-05-28T01:03:46.998Z,2.62
2019-05-28T01:05:51.809Z,2.98
2019-05-28T01:07:55.608Z,2.45
2019-05-28T01:09:59.490Z,2.50
2019-05-28T01:12:03.498Z,2.50
2019-05-28T01:14:07.635Z,2.50
2019-05-28T01:16:11.453Z,1.92
2019-05-28T01:18:16.366Z,2.20
2019-05-28T01:20:20.336Z,2.10
2019-05-28T01:22:24.202Z,2.35
2019-05-28T01:24:28.026Z,1.85
2019-05-28T01:26:31.883Z,2.40
2019-05-28T01:28:35.698Z,1.90
2019-05-28T01:30:55.740Z,2.15
2019-05-28T01:32:46.151Z,2.20
2019-05-28T01:34:49.974Z,2.20
2019-05-28T01:36:53.772Z,2.33
2019-05-28T01:38:57.571Z,2.08
2019-05-28T01:41:01.366Z,2.20
2019-05-28T01:43:05.238Z,2.00
2019-05-28T01:45:09.746Z,2.17
2019-05-28T01:47:13.677Z,2.40
2019-05-28T01:49:17.534Z,2.27
2019-05-28T01:51:21.317Z,1.95
2019-05-28T01:53:26.225Z,2.10
2019-05-28T01:55:30.039Z,2.35
2019-05-28T01:57:33.860Z,2.45
2019-05-28T01:59:37.766Z,2.47
2019-05-28T02:01:41.567Z,2.10
2019-05-28T02:03:45.360Z,2.27
2019-05-28T02:05:49.249Z,2.20
2019-05-28T02:07:53.062Z,2.30
2019-05-28T02:09:56.872Z,1.98
2019-05-28T02:12:00.686Z,1.90
2019-05-28T02:14:04.842Z,2.02
2019-05-28T02:16:08.699Z,2.40
2019-05-28T02:18:12.488Z,2.33
2019-05-28T02:20:16.472Z,1.98
2019-05-28T02:22:20.307Z,2.10
2019-05-28T02:24:24.177Z,2.25
2019-05-28T02:26:29.047Z,2.80
2019-05-28T02:28:32.835Z,2.20
2019-05-28T02:30:36.784Z,2.22
2019-05-28T02:32:40.731Z,2.30
2019-05-28T02:34:45.590Z,2.42
2019-05-28T02:36:50.516Z,2.67
2019-05-28T02:38:55.350Z,2.35
2019-05-28T02:41:00.434Z,2.40
2019-05-28T02:43:04.539Z,2.37
2019-05-28T02:45:09.329Z,2.02
2019-05-28T02:47:15.158Z,2.50
2019-05-28T02:49:19.033Z,2.40
2019-05-28T02:51:24.741Z,2.00
2019-05-28T02:53:29.530Z,2.00
2019-05-28T02:55:34.495Z,2.42
2019-05-28T02:57:40.297Z,2.33
2019-05-28T02:59:45.924Z,2.65
2019-05-28T03:01:52.335Z,2.50
2019-05-28T03:03:57.391Z,2.50
2019-05-28T03:06:01.549Z,3.40
2019-05-28T03:08:05.474Z,2.63
2019-05-28T03:10:09.448Z,2.80
2019-05-28T03:12:13.428Z,2.87
2019-05-28T03:14:17.452Z,2.90
2019-05-28T03:16:25.371Z,2.90
2019-05-28T03:18:30.301Z,2.77
2019-05-28T03:20:35.976Z,3.05
2019-05-28T03:22:41.403Z,2.90
2019-05-28T03:24:48.495Z,2.77
2019-05-28T03:26:52.324Z,3.02
2019-05-28T03:28:56.364Z,3.00
2019-05-28T03:31:00.393Z,2.85
2019-05-28T03:33:04.611Z,3.35
2019-05-28T03:35:08.509Z,3.27
2019-05-28T03:37:13.180Z,3.20
2019-05-28T03:39:17.391Z,3.30
2019-05-28T03:41:21.251Z,3.20
2019-05-28T03:43:25.156Z,3.35
2019-05-28T03:45:29.192Z,3.00
2019-05-28T03:47:34.022Z,3.57
2019-05-28T03:49:38.839Z,3.13
2019-05-28T03:51:42.659Z,3.40
2019-05-28T03:53:46.431Z,3.37
2019-05-28T03:55:50.254Z,3.20
2019-05-28T03:57:54.039Z,3.10
2019-05-28T03:59:58.148Z,3.10
2019-05-28T04:02:02.140Z,3.43
2019-05-28T04:04:06.172Z,3.20
2019-05-28T04:06:09.978Z,3.23
2019-05-28T04:08:13.804Z,3.10
2019-05-28T04:10:17.690Z,3.50
2019-05-28T04:12:21.487Z,3.43
2019-05-28T04:14:25.365Z,3.60
2019-05-28T04:16:29.197Z,3.47
2019-05-28T04:18:33.033Z,3.60
2019-05-28T04:20:36.887Z,3.53
2019-05-28T04:22:40.735Z,3.60
2019-05-28T04:24:44.529Z,3.87
2019-05-28T04:26:48.324Z,3.73
2019-05-28T04:28:53.146Z,3.70
2019-05-28T04:30:56.944Z,3.70
2019-05-28T04:33:01.992Z,3.57
2019-05-28T04:35:07.093Z,3.97
2019-05-28T04:37:11.012Z,3.97
2019-05-28T04:39:14.902Z,3.43
2019-05-28T04:41:18.911Z,3.73
2019-05-28T04:43:22.752Z,4.20
2019-05-28T04:45:26.647Z,3.83
2019-05-28T04:47:30.457Z,3.80
2019-05-28T04:49:36.379Z,3.73
2019-05-28T04:51:40.224Z,4.10
2019-05-28T04:53:44.075Z,4.27
2019-05-28T04:55:47.891Z,4.30
2019-05-28T04:57:51.804Z,4.27
2019-05-28T04:59:55.604Z,3.90
2019-05-28T05:01:59.460Z,4.17
2019-05-28T05:04:03.423Z,4.50
2019-05-28T05:06:07.307Z,4.20
2019-05-28T05:08:11.166Z,4.03
2019-05-28T05:10:18.826Z,3.73
2019-05-28T05:12:21.723Z,4.57
2019-05-28T05:14:25.527Z,4.60
2019-05-28T05:16:29.400Z,4.50
2019-05-28T05:18:33.308Z,5.28
2019-05-28T05:20:38.176Z,4.93
2019-05-28T05:22:42.000Z,5.03
2019-05-28T05:24:45.875Z,4.95
2019-05-28T05:26:52.889Z,5.05
2019-05-28T05:28:55.317Z,5.10
2019-05-28T05:31:00.151Z,5.30
2019-05-28T05:33:19.215Z,5.30
2019-05-28T05:35:09.846Z,4.97
2019-05-28T05:37:13.725Z,5.60
2019-05-28T05:39:17.580Z,5.50
2019-05-28T05:41:21.356Z,5.60
2019-05-28T05:43:25.140Z,5.40
2019-05-28T05:45:28.980Z,5.50
2019-05-28T05:47:32.814Z,5.50
2019-05-28T05:49:36.630Z,5.47
2019-05-28T05:51:40.423Z,4.80
2019-05-28T05:53:44.185Z,5.63
2019-05-28T05:55:49.957Z,5.37
2019-05-28T05:57:53.806Z,5.70
2019-05-28T05:59:57.662Z,5.10
2019-05-28T06:02:01.666Z,5.40
2019-05-28T06:04:05.511Z,5.60
2019-05-28T06:06:09.294Z,5.90
2019-05-28T06:08:13.160Z,5.90
2019-05-28T06:10:17.113Z,5.50
2019-05-28T06:12:21.018Z,5.40
2019-05-28T06:14:24.782Z,6.53
2019-05-28T06:16:28.550Z,5.90
2019-05-28T06:18:32.350Z,6.03
2019-05-28T06:20:38.440Z,5.37
2019-05-28T06:22:47.588Z,6.22
2019-05-28T06:24:54.681Z,6.00
2019-05-28T06:27:01.741Z,6.05
2019-05-28T06:29:05.636Z,5.95
2019-05-28T06:31:09.404Z,6.65
2019-05-28T06:33:13.185Z,7.20
2019-05-28T06:35:17.125Z,6.83
2019-05-28T06:37:21.879Z,6.22
2019-05-28T06:39:26.006Z,5.92
2019-05-28T06:41:30.013Z,6.40
2019-05-28T06:43:36.692Z,6.55
2019-05-28T06:45:40.565Z,6.47
2019-05-28T06:47:45.816Z,7.12
2019-05-28T06:49:50.973Z,6.53
2019-05-28T06:51:55.766Z,6.95
2019-05-28T06:53:59.625Z,7.42
2019-05-28T06:56:03.475Z,7.23
2019-05-28T06:58:07.525Z,7.50
2019-05-28T07:00:13.241Z,7.67
2019-05-28T07:02:17.018Z,7.37
2019-05-28T07:04:32.240Z,7.37
2019-05-28T07:06:26.294Z,8.07
2019-05-28T07:08:30.069Z,8.27
2019-05-28T07:10:33.851Z,7.22
2019-05-28T07:12:37.778Z,7.33
2019-05-28T07:14:41.606Z,7.97
2019-05-28T07:16:53.300Z,7.03
2019-05-28T07:18:50.857Z,7.90
2019-05-28T07:20:54.657Z,7.50
2019-05-28T07:22:59.589Z,8.03
2019-05-28T07:25:03.707Z,8.00
2019-05-28T07:27:07.538Z,8.53
2019-05-28T07:29:11.379Z,8.18
2019-05-28T07:31:15.135Z,8.08
2019-05-28T07:33:18.996Z,7.78
2019-05-28T07:35:22.814Z,8.25
2019-05-28T07:37:26.628Z,7.80
2019-05-28T07:39:30.858Z,8.60
2019-05-28T07:41:36.315Z,9.15
2019-05-28T07:43:43.230Z,8.45
2019-05-28T07:45:52.290Z,7.75
2019-05-28T07:47:57.756Z,8.08
2019-05-28T07:50:04.122Z,8.30
2019-05-28T07:52:10.116Z,8.28
2019-05-28T07:54:22.113Z,8.88
2019-05-28T07:56:25.915Z,8.83
2019-05-28T07:58:32.200Z,8.70
2019-05-28T08:00:40.512Z,8.33
2019-05-28T08:02:44.338Z,8.67
2019-05-28T08:04:50.948Z,9.18
2019-05-28T08:06:56.063Z,8.43
2019-05-28T08:09:03.118Z,8.75
2019-05-28T08:11:06.882Z,8.53
2019-05-28T08:13:10.823Z,8.10
2019-05-28T08:15:15.082Z,8.60
2019-05-28T08:17:19.047Z,8.10
2019-05-28T08:19:22.830Z,8.27
2019-05-28T08:21:26.746Z,8.38
2019-05-28T08:23:30.808Z,7.30
2019-05-28T08:25:46.796Z,8.43
2019-05-28T08:27:40.207Z,7.75
2019-05-28T08:29:45.697Z,7.90
2019-05-28T08:31:49.745Z,7.75
2019-05-28T08:33:53.622Z,7.37
2019-05-28T08:35:57.485Z,7.85
2019-05-28T08:38:01.340Z,8.33
2019-05-28T08:40:05.741Z,8.53
2019-05-28T08:42:09.554Z,7.30
2019-05-28T08:44:13.402Z,7.45
2019-05-28T08:46:17.232Z,8.15
2019-05-28T08:48:21.087Z,7.47
2019-05-28T08:50:34.620Z,7.62
2019-05-28T08:52:30.629Z,8.00
2019-05-28T08:54:34.753Z,7.45
2019-05-28T08:56:39.789Z,7.17
2019-05-28T08:58:43.700Z,7.20
2019-05-28T09:00:47.690Z,7.50
2019-05-28T09:02:51.420Z,7.15
2019-05-28T09:04:55.246Z,8.28
2019-05-28T09:06:59.004Z,6.85
2019-05-28T09:09:03.024Z,7.15
2019-05-28T09:11:07.738Z,7.40
2019-05-28T09:13:12.070Z,7.20
2019-05-28T09:15:15.927Z,7.12
2019-05-28T09:17:19.690Z,6.78
2019-05-28T09:19:23.539Z,7.50
2019-05-28T09:21:27.286Z,7.42
2019-05-28T09:23:31.082Z,7.55
2019-05-28T09:25:34.932Z,7.60
2019-05-28T09:27:38.684Z,6.45
2019-05-28T09:29:42.462Z,7.28
2019-05-28T09:31:46.314Z,6.92
2019-05-28T09:33:50.108Z,7.53
2019-05-28T09:36:07.430Z,7.50
2019-05-28T09:37:59.363Z,7.05
2019-05-28T09:40:03.219Z,7.83
2019-05-28T09:42:07.087Z,7.08
2019-05-28T09:44:10.876Z,7.58
2019-05-28T09:46:14.672Z,6.83
2019-05-28T09:48:18.466Z,6.72
2019-05-28T09:50:30.577Z,6.75
2019-05-28T09:52:28.216Z,7.70
2019-05-28T09:54:32.062Z,7.08
2019-05-28T09:56:35.922Z,8.10
2019-05-28T09:58:39.686Z,7.92
2019-05-28T10:00:57.768Z,7.83
2019-05-28T10:02:49.265Z,7.58
2019-05-28T10:04:53.239Z,8.05
2019-05-28T10:06:57.000Z,7.80
2019-05-28T10:09:00.741Z,6.53
2019-05-28T10:11:04.712Z,6.35
2019-05-28T10:13:08.492Z,7.03
2019-05-28T10:15:12.932Z,6.87
2019-05-28T10:17:16.827Z,7.25
2019-05-28T10:19:20.595Z,6.80
2019-05-28T10:21:24.430Z,5.95
2019-05-28T10:23:28.234Z,6.53
2019-05-28T10:25:32.176Z,6.70
2019-05-28T10:27:35.965Z,6.60
2019-05-28T10:29:39.737Z,6.55
2019-05-28T10:31:44.668Z,6.50
2019-05-28T10:33:48.455Z,4.85
2019-05-28T10:35:52.441Z,4.22
2019-05-28T10:37:56.397Z,4.08
2019-05-28T10:40:00.222Z,4.28
2019-05-28T11:34:09.149Z,4.05
2019-05-28T11:36:12.951Z,3.95
2019-05-28T11:38:16.755Z,4.22
2019-05-28T11:40:21.017Z,3.67
2019-05-28T11:42:25.071Z,3.80
2019-05-28T11:44:28.892Z,4.03
2019-05-28T11:46:32.690Z,3.58
2019-05-28T11:48:36.490Z,3.40
2019-05-28T11:50:40.325Z,3.98
2019-05-28T11:52:44.175Z,3.40
2019-05-28T11:54:47.941Z,3.37
2019-05-28T11:56:57.009Z,2.75
2019-05-28T11:59:00.816Z,2.25
2019-05-28T12:01:04.793Z,2.02
2019-05-28T12:03:09.756Z,2.10
2019-05-28T12:05:16.107Z,2.12
2019-05-28T12:07:25.984Z,1.82
2019-05-28T12:13:52.336Z,2.30
2019-05-28T12:15:56.149Z,2.10
2019-05-28T12:18:00.000Z,1.70
2019-05-28T12:20:04.801Z,1.95
2019-05-28T12:22:08.871Z,2.02
2019-05-28T12:24:12.686Z,1.82
2019-05-28T12:28:50.245Z,2.22
2019-05-28T12:36:37.337Z,2.58
2019-05-28T12:38:41.203Z,1.80
2019-05-28T12:40:48.316Z,2.20
2019-05-28T12:42:50.717Z,1.72
2019-05-28T12:45:48.293Z,1.50
2019-05-28T12:48:26.040Z,1.35
2019-05-28T12:50:17.091Z,1.30
2019-05-28T12:52:04.656Z,1.17
2019-05-28T12:54:08.498Z,1.22
2019-05-28T12:56:12.370Z,1.27
2019-05-28T12:58:17.831Z,1.50
2019-05-28T13:00:23.526Z,2.17
2019-05-28T13:02:27.382Z,2.30
2019-05-28T13:04:31.242Z,2.83
2019-05-28T13:06:35.107Z,2.77
2019-05-28T13:08:38.877Z,2.42
2019-05-28T13:10:42.767Z,2.70
2019-05-28T13:12:46.561Z,2.67
2019-05-28T13:14:51.422Z,2.22
2019-05-28T13:16:55.309Z,2.20
2019-05-28T13:21:21.616Z,2.75
2019-05-28T13:32:48.730Z,2.62
2019-05-28T13:34:58.605Z,2.72
2019-05-28T13:37:17.793Z,2.52
2019-05-28T13:39:49.920Z,2.45
2019-05-28T13:45:13.679Z,2.33
2019-05-28T13:47:32.210Z,1.50
2019-05-28T13:52:28.444Z,1.77
2019-05-28T13:54:41.756Z,1.77
2019-05-28T13:56:54.031Z,1.87
2019-05-28T14:04:46.065Z,2.00
2019-05-28T14:06:49.960Z,2.45
2019-05-28T14:08:53.728Z,2.40
2019-05-28T14:10:57.567Z,2.47
2019-05-28T14:13:01.473Z,2.35
2019-05-28T14:15:06.288Z,2.20
2019-05-28T14:17:10.056Z,2.67
2019-05-28T14:19:13.852Z,3.33
2019-05-28T14:21:17.615Z,2.60
2019-05-28T14:23:21.556Z,1.87
2019-05-28T14:25:25.333Z,2.30
2019-05-28T14:29:39.031Z,2.65
2019-05-28T14:31:42.870Z,2.65
2019-05-28T14:33:46.648Z,2.50
2019-05-28T14:35:50.472Z,2.42
2019-05-28T14:37:54.312Z,2.55
2019-05-28T14:39:58.259Z,2.10
2019-05-28T14:42:02.176Z,2.10
2019-05-28T14:47:21.737Z,2.45
2019-05-28T14:49:25.652Z,2.87
2019-05-28T14:51:29.505Z,2.65
2019-05-28T14:53:33.289Z,2.67
2019-05-28T14:55:37.066Z,2.55
2019-05-28T14:57:41.005Z,2.67
2019-05-28T14:59:44.989Z,2.47
2019-05-28T15:01:48.967Z,2.77
2019-05-28T15:03:52.763Z,2.80
2019-05-28T15:05:56.687Z,2.33
2019-05-28T15:08:00.621Z,2.98
2019-05-28T15:10:05.389Z,2.40
2019-05-28T15:12:09.126Z,2.85
2019-05-28T15:14:12.993Z,3.22
2019-05-28T15:16:16.890Z,2.85
2019-05-28T15:18:20.734Z,2.95
2019-05-28T15:20:24.663Z,3.22
2019-05-28T15:22:28.447Z,3.20
2019-05-28T15:24:32.228Z,2.62
2019-05-28T15:26:36.217Z,3.00
2019-05-28T15:28:40.072Z,3.02
2019-05-28T15:30:44.019Z,2.90
2019-05-28T15:32:47.883Z,2.77
2019-05-28T15:34:51.769Z,2.90
2019-05-28T15:36:55.679Z,2.87
2019-05-28T15:38:59.600Z,2.55
2019-05-28T15:41:03.549Z,2.30
2019-05-28T15:43:07.389Z,2.70
2019-05-28T15:45:12.342Z,2.45
2019-05-28T15:47:16.245Z,2.30
2019-05-28T15:49:20.108Z,2.35
2019-05-28T15:51:23.911Z,2.50
2019-05-28T15:53:27.691Z,2.42
2019-05-28T15:55:31.526Z,1.98
2019-05-28T15:57:35.308Z,2.20
2019-05-28T15:59:39.077Z,2.30
2019-05-28T16:01:42.846Z,2.70
2019-05-28T16:03:46.635Z,2.27
2019-05-28T16:05:50.446Z,2.30
2019-05-28T16:07:54.218Z,2.50
2019-05-28T16:09:58.007Z,2.35
2019-05-28T16:12:01.936Z,2.33
2019-05-28T16:14:06.349Z,1.90
2019-05-28T16:16:10.142Z,1.90
2019-05-28T16:18:13.940Z,1.32
2019-05-28T16:20:17.985Z,1.80
2019-05-28T16:22:21.771Z,1.82
2019-05-28T16:24:25.690Z,2.08
2019-05-28T16:26:29.479Z,2.50
2019-05-28T16:28:33.423Z,2.15
2019-05-28T16:30:37.270Z,2.98
2019-05-28T16:32:41.252Z,3.33
2019-05-28T16:34:45.099Z,3.00
2019-05-28T16:36:49.015Z,3.02
2019-05-28T16:38:52.911Z,3.12
2019-05-28T16:40:56.792Z,2.52
2019-05-28T16:43:00.695Z,2.40
2019-05-28T16:45:06.078Z,2.77
2019-05-28T16:47:17.334Z,2.65
2019-05-28T16:49:15.798Z,2.40
2019-05-28T16:51:19.598Z,2.58
2019-05-28T16:53:23.554Z,2.22
2019-05-28T16:55:27.421Z,2.50
2019-05-28T16:57:31.367Z,2.37
2019-05-28T16:59:35.290Z,2.58
2019-05-28T17:01:39.133Z,2.40
2019-05-28T17:03:43.022Z,1.87
2019-05-28T17:05:46.848Z,1.95
2019-05-28T17:10:31.465Z,2.05
2019-05-28T17:12:23.574Z,1.45
2019-05-28T17:14:30.592Z,1.65
2019-05-28T17:16:53.856Z,1.80
2019-05-28T17:19:14.483Z,1.50
2019-05-28T17:21:19.255Z,1.82
2019-05-28T17:26:52.105Z,2.00
2019-05-28T17:31:31.545Z,2.10
2019-05-28T17:34:04.570Z,1.92
2019-05-28T17:45:16.540Z,1.10
2019-05-28T17:47:43.791Z,1.30
2019-05-28T17:49:48.602Z,1.40
2019-05-28T17:52:04.123Z,1.35
2019-05-28T17:54:16.640Z,1.50
2019-05-28T17:56:21.738Z,1.25
2019-05-28T17:58:31.163Z,1.32
2019-05-28T18:00:41.181Z,1.20
2019-05-28T18:05:17.947Z,1.72
2019-05-28T18:07:27.067Z,1.77
2019-05-28T18:13:20.200Z,1.30
2019-05-28T18:15:23.782Z,1.25
2019-05-28T18:17:42.022Z,1.00
2019-05-28T18:19:54.275Z,1.20
2019-05-28T18:22:09.900Z,1.00
2019-05-28T18:24:38.711Z,1.02
2019-05-28T18:26:43.778Z,1.30
2019-05-28T18:29:35.648Z,1.05
2019-05-28T18:31:21.092Z,1.00
2019-05-28T18:33:35.249Z,1.20
2019-05-28T18:36:19.765Z,1.10
2019-05-28T19:27:41.763Z,0.70
2019-05-28T19:29:50.241Z,0.53
2019-05-28T19:31:51.119Z,0.70
2019-05-28T19:33:55.957Z,0.70
2019-05-28T19:36:01.665Z,0.60
2019-05-28T19:38:05.699Z,0.80
2019-05-28T19:40:11.951Z,0.83
2019-05-28T19:42:15.741Z,0.70
2019-05-28T19:44:19.545Z,0.90
2019-05-28T19:46:23.279Z,0.80
2019-05-28T19:48:27.030Z,1.00
2019-05-28T19:50:30.932Z,0.90
2019-05-28T19:52:34.661Z,0.80
2019-05-28T19:54:38.389Z,0.83
2019-05-28T19:56:42.131Z,0.90
2019-05-28T19:58:45.885Z,0.80
2019-05-28T20:00:50.576Z,0.70
2019-05-28T20:02:54.469Z,0.90
2019-05-28T20:04:58.378Z,1.03
2019-05-28T20:07:02.382Z,0.90
2019-05-28T20:09:07.691Z,1.17
2019-05-28T20:11:11.446Z,1.20
2019-05-28T20:13:15.240Z,0.90
2019-05-28T20:15:22.856Z,1.03
2019-05-28T20:17:26.310Z,0.90
2019-05-28T20:19:30.823Z,0.83
2019-05-28T20:21:34.637Z,0.97
2019-05-28T20:23:38.429Z,1.00
2019-05-28T20:25:42.167Z,1.17
2019-05-28T20:27:45.927Z,1.23
2019-05-28T20:29:49.738Z,1.13
2019-05-28T20:31:56.327Z,1.00
2019-05-28T20:34:01.119Z,1.10
2019-05-28T20:36:05.877Z,1.17
2019-05-28T20:38:12.453Z,1.13
2019-05-28T20:40:16.031Z,1.40
2019-05-28T20:42:27.217Z,1.10
2019-05-28T20:44:25.254Z,1.10
2019-05-28T20:46:29.066Z,1.10
2019-05-28T20:48:32.873Z,1.30
2019-05-28T20:50:36.767Z,1.57
2019-05-28T20:52:40.681Z,1.10
2019-05-28T20:54:44.593Z,1.40
2019-05-28T20:56:50.340Z,1.40
2019-05-28T20:58:53.948Z,1.47
2019-05-28T21:00:57.899Z,1.57
2019-05-28T21:03:02.034Z,1.10
2019-05-28T21:05:06.251Z,1.10
2019-05-28T21:07:10.053Z,0.90
2019-05-28T21:09:13.981Z,1.20
2019-05-28T21:11:17.728Z,1.30
2019-05-28T21:13:21.551Z,1.10
2019-05-28T21:15:25.366Z,1.30
2019-05-28T21:17:29.086Z,1.20
2019-05-28T21:19:32.815Z,1.00
2019-05-28T21:21:36.612Z,1.00
2019-05-28T21:23:40.342Z,1.20
2019-05-28T21:25:44.068Z,1.70
2019-05-28T21:27:47.892Z,1.03
2019-05-28T21:29:52.145Z,1.03
2019-05-28T21:31:56.587Z,1.40
2019-05-28T21:34:01.602Z,1.43
2019-05-28T21:36:05.505Z,1.53
2019-05-28T21:38:09.249Z,1.50
2019-05-28T21:40:13.422Z,1.50
2019-05-28T21:42:17.264Z,1.57
2019-05-28T21:44:21.005Z,1.40
2019-05-28T21:46:24.729Z,1.33
2019-05-28T21:48:28.607Z,1.60
2019-05-28T21:50:32.382Z,1.60
2019-05-28T21:52:36.128Z,1.20
2019-05-28T21:54:39.901Z,1.73
2019-05-28T21:56:43.846Z,1.60
2019-05-28T21:58:47.663Z,1.57
2019-05-28T22:00:58.405Z,1.63
2019-05-28T22:03:02.667Z,1.53
2019-05-28T22:05:09.533Z,1.87
2019-05-28T22:07:12.588Z,1.70
2019-05-28T22:09:16.474Z,1.20
2019-05-28T22:11:20.314Z,1.63
2019-05-28T22:13:24.216Z,2.00
2019-05-28T22:15:28.219Z,1.37
2019-05-28T22:17:32.117Z,1.60
2019-05-28T22:19:35.908Z,1.60
2019-05-28T22:21:39.861Z,1.83
2019-05-28T22:23:43.746Z,1.80
2019-05-28T22:25:47.634Z,1.83
2019-05-28T22:27:51.355Z,1.80
2019-05-28T22:29:56.423Z,2.03
2019-05-28T22:32:00.731Z,1.80
2019-05-28T22:34:05.278Z,1.93
2019-05-28T22:36:09.238Z,2.03
2019-05-28T22:38:13.216Z,1.73
2019-05-28T22:40:17.187Z,1.97
2019-05-28T22:42:21.113Z,1.77
2019-05-28T22:44:25.040Z,1.93
2019-05-28T22:46:28.941Z,1.57
2019-05-28T22:48:32.872Z,1.87
2019-05-28T22:50:36.823Z,1.70
2019-05-28T22:52:41.677Z,1.90
2019-05-28T22:54:45.578Z,1.70
2019-05-28T22:56:49.353Z,2.00
2019-05-28T22:58:53.216Z,2.00
2019-05-28T23:00:57.086Z,2.10
2019-05-28T23:03:01.015Z,1.90
2019-05-28T23:05:05.499Z,1.90
2019-05-28T23:07:09.543Z,1.50
2019-05-28T23:09:13.437Z,2.00
2019-05-28T23:11:17.205Z,1.77
2019-05-28T23:13:21.127Z,1.93
2019-05-28T23:15:24.931Z,1.90
2019-05-28T23:17:28.727Z,1.67
2019-05-28T23:19:32.628Z,1.90
2019-05-28T23:21:36.552Z,1.57
2019-05-28T23:23:40.647Z,1.70
2019-05-28T23:25:44.574Z,1.90
2019-05-28T23:27:48.448Z,1.77
2019-05-28T23:29:52.368Z,1.87
2019-05-28T23:31:56.269Z,1.93
2019-05-28T23:34:00.242Z,2.20
2019-05-28T23:36:04.434Z,1.87
2019-05-28T23:38:09.089Z,1.70
2019-05-28T23:40:13.455Z,1.80
2019-05-28T23:42:17.221Z,1.70
2019-05-28T23:44:21.121Z,1.57
2019-05-28T23:46:25.039Z,1.50
2019-05-28T23:48:28.954Z,1.80
2019-05-28T23:50:32.907Z,1.77
2019-05-28T23:52:36.794Z,1.90
2019-05-28T23:54:40.648Z,1.97
2019-05-28T23:56:44.554Z,1.90
2019-05-28T23:58:48.492Z,2.00
